createdAt,value
2022-11-15T00:00:41.304Z,7
2022-11-15T00:01:41.322Z,7
2022-11-15T00:03:41.282Z,6
2022-11-15T00:04:41.282Z,6
2022-11-15T00:05:41.282Z,6
2022-11-15T00:06:41.282Z,6
2022-11-15T00:07:55.318Z,6
2022-11-15T00:08:41.284Z,6
2022-11-15T00:09:45.812Z,6
2022-11-15T00:10:41.338Z,6
2022-11-15T00:12:41.308Z,5
2022-11-15T00:13:41.311Z,6
2022-11-15T00:14:41.285Z,5
2022-11-15T00:15:41.286Z,6
2022-11-15T00:17:41.305Z,6
2022-11-15T00:18:45.163Z,6
2022-11-15T00:19:41.278Z,6
2022-11-15T00:20:41.332Z,6
2022-11-15T00:21:41.310Z,7
2022-11-15T00:22:41.306Z,6
2022-11-15T00:23:41.302Z,7
2022-11-15T00:24:41.315Z,6
2022-11-15T00:25:41.293Z,6
2022-11-15T00:26:41.284Z,6
2022-11-15T00:27:41.304Z,6
2022-11-15T00:28:41.302Z,6
2022-11-15T00:29:41.317Z,6
2022-11-15T00:30:41.307Z,6
2022-11-15T00:31:41.309Z,5
2022-11-15T00:32:41.301Z,6
2022-11-15T00:33:41.304Z,6
2022-11-15T00:34:41.301Z,6
2022-11-15T00:35:41.317Z,6
2022-11-15T00:36:41.308Z,6
2022-11-15T00:37:41.313Z,6
2022-11-15T00:38:41.302Z,6
2022-11-15T00:39:41.306Z,5
2022-11-15T00:40:41.307Z,6
2022-11-15T00:41:41.327Z,5
2022-11-15T00:42:41.311Z,5
2022-11-15T00:43:41.372Z,5
2022-11-15T00:44:41.304Z,5
2022-11-15T00:45:41.302Z,5
2022-11-15T00:46:41.307Z,5
2022-11-15T00:47:41.305Z,5
2022-11-15T00:48:41.307Z,5
2022-11-15T00:49:41.320Z,5
2022-11-15T00:51:41.314Z,6
2022-11-15T00:52:41.317Z,5
2022-11-15T00:54:41.309Z,5
2022-11-15T00:55:41.323Z,5
2022-11-15T00:56:41.381Z,6
2022-11-15T00:59:41.312Z,5
2022-11-15T01:00:41.452Z,5
2022-11-15T01:01:41.312Z,5
2022-11-15T01:02:41.314Z,5
2022-11-15T01:03:41.312Z,6
2022-11-15T01:05:41.312Z,5
2022-11-15T01:06:41.313Z,5
2022-11-15T01:07:41.352Z,6
2022-11-15T01:09:41.315Z,6
2022-11-15T01:10:41.321Z,5
2022-11-15T01:11:41.310Z,5
2022-11-15T01:12:41.351Z,6
2022-11-15T01:13:41.319Z,6
2022-11-15T01:14:41.329Z,6
2022-11-15T01:15:41.309Z,6
2022-11-15T01:16:41.315Z,5
2022-11-15T01:17:41.320Z,5
2022-11-15T01:18:41.306Z,5
2022-11-15T01:19:41.319Z,5
2022-11-15T01:20:41.311Z,5
2022-11-15T01:21:41.313Z,5
2022-11-15T01:22:41.319Z,5
2022-11-15T01:23:41.306Z,6
2022-11-15T01:24:41.312Z,5
2022-11-15T01:25:41.317Z,6
2022-11-15T01:26:41.320Z,5
2022-11-15T01:27:41.334Z,5
2022-11-15T01:28:41.338Z,5
2022-11-15T01:29:41.323Z,5
2022-11-15T01:30:41.328Z,6
2022-11-15T01:31:41.326Z,5
2022-11-15T01:33:41.313Z,5
2022-11-15T01:35:41.323Z,5
2022-11-15T01:38:41.312Z,6
2022-11-15T01:39:41.314Z,5
2022-11-15T01:40:41.338Z,5
2022-11-15T01:41:41.335Z,6
2022-11-15T01:44:41.348Z,5
2022-11-15T01:45:41.332Z,5
2022-11-15T01:46:41.323Z,5
2022-11-15T01:47:41.321Z,5
2022-11-15T01:48:41.331Z,5
2022-11-15T01:49:41.314Z,6
2022-11-15T01:51:41.314Z,5
2022-11-15T01:52:41.311Z,5
2022-11-15T01:53:41.322Z,5
2022-11-15T01:54:41.338Z,5
2022-11-15T01:55:41.321Z,5
2022-11-15T01:57:41.308Z,4
2022-11-15T01:59:41.356Z,5
2022-11-15T02:00:41.381Z,5
2022-11-15T02:01:41.342Z,5
2022-11-15T02:03:41.334Z,5
2022-11-15T02:04:41.323Z,5
2022-11-15T02:05:41.318Z,4
2022-11-15T02:06:41.339Z,5
2022-11-15T02:07:41.342Z,5
2022-11-15T02:08:41.342Z,4
2022-11-15T02:09:41.325Z,5
2022-11-15T02:10:41.319Z,5
2022-11-15T02:12:41.322Z,5
2022-11-15T02:13:41.338Z,5
2022-11-15T02:14:41.340Z,5
2022-11-15T02:15:41.334Z,5
2022-11-15T02:17:41.340Z,5
2022-11-15T02:18:41.396Z,4
2022-11-15T02:19:41.328Z,5
2022-11-15T02:20:41.332Z,4
2022-11-15T02:21:41.336Z,5
2022-11-15T02:22:41.341Z,4
2022-11-15T02:23:41.325Z,5
2022-11-15T02:24:41.325Z,4
2022-11-15T02:25:41.329Z,5
2022-11-15T02:26:41.331Z,5
2022-11-15T02:27:41.335Z,5
2022-11-15T02:29:41.328Z,4
2022-11-15T02:30:41.352Z,4
2022-11-15T02:31:41.330Z,4
2022-11-15T02:32:41.339Z,5
2022-11-15T02:33:41.340Z,5
2022-11-15T02:34:41.340Z,5
2022-11-15T02:35:41.332Z,5
2022-11-15T02:36:41.328Z,4
2022-11-15T02:37:41.358Z,4
2022-11-15T02:38:41.342Z,4
2022-11-15T02:39:41.336Z,4
2022-11-15T02:40:41.347Z,4
2022-11-15T02:41:41.350Z,4
2022-11-15T02:42:41.371Z,5
2022-11-15T02:43:41.355Z,5
2022-11-15T02:44:41.365Z,4
2022-11-15T02:45:41.367Z,5
2022-11-15T02:46:41.357Z,5
2022-11-15T02:47:41.328Z,4
2022-11-15T02:48:41.412Z,5
2022-11-15T02:49:41.334Z,4
2022-11-15T02:50:41.329Z,4
2022-11-15T02:51:41.350Z,4
2022-11-15T02:52:41.355Z,4
2022-11-15T02:54:41.355Z,4
2022-11-15T02:55:41.357Z,5
2022-11-15T02:56:41.340Z,5
2022-11-15T02:57:41.335Z,5
2022-11-15T03:00:41.401Z,4
2022-11-15T03:01:41.369Z,4
2022-11-15T03:02:41.336Z,5
2022-11-15T03:03:41.336Z,4
2022-11-15T03:04:41.343Z,4
2022-11-15T03:05:41.337Z,4
2022-11-15T03:06:41.341Z,5
2022-11-15T03:07:41.337Z,5
2022-11-15T03:09:41.349Z,5
2022-11-15T03:10:41.336Z,5
2022-11-15T03:11:41.336Z,5
2022-11-15T03:12:41.339Z,5
2022-11-15T03:13:41.356Z,4
2022-11-15T03:14:41.350Z,5
2022-11-15T03:15:41.350Z,5
2022-11-15T03:16:41.350Z,4
2022-11-15T03:17:41.344Z,5
2022-11-15T03:18:41.380Z,4
2022-11-15T03:19:41.359Z,4
2022-11-15T03:20:41.358Z,4
2022-11-15T03:22:41.370Z,4
2022-11-15T03:23:41.357Z,5
2022-11-15T03:24:41.382Z,4
2022-11-15T03:26:41.343Z,4
2022-11-15T03:27:41.347Z,5
2022-11-15T03:28:41.355Z,5
2022-11-15T03:29:41.347Z,4
2022-11-15T03:31:45.630Z,5
2022-11-15T03:33:41.354Z,5
2022-11-15T03:34:41.347Z,5
2022-11-15T03:35:41.393Z,6
2022-11-15T03:36:41.341Z,5
2022-11-15T03:38:41.476Z,5
2022-11-15T03:39:41.351Z,5
2022-11-15T03:40:41.349Z,5
2022-11-15T03:41:41.354Z,5
2022-11-15T03:43:41.373Z,6
2022-11-15T03:44:41.370Z,5
2022-11-15T03:45:41.390Z,5
2022-11-15T03:46:41.364Z,5
2022-11-15T03:47:41.371Z,6
2022-11-15T03:48:41.355Z,6
2022-11-15T03:49:41.359Z,5
2022-11-15T03:50:41.409Z,5
2022-11-15T03:51:41.383Z,5
2022-11-15T03:52:41.352Z,5
2022-11-15T03:53:41.359Z,5
2022-11-15T03:54:41.361Z,5
2022-11-15T03:55:41.400Z,5
2022-11-15T03:56:41.375Z,5
2022-11-15T03:57:41.358Z,5
2022-11-15T03:58:41.359Z,5
2022-11-15T03:59:41.359Z,5
2022-11-15T04:00:41.536Z,5
2022-11-15T04:01:41.456Z,5
2022-11-15T04:02:41.363Z,5
2022-11-15T04:03:41.384Z,4
2022-11-15T04:04:41.385Z,5
2022-11-15T04:05:41.359Z,4
2022-11-15T04:06:41.361Z,4
2022-11-15T04:07:41.355Z,5
2022-11-15T04:08:41.363Z,5
2022-11-15T04:09:41.354Z,5
2022-11-15T04:12:41.364Z,4
2022-11-15T04:13:41.369Z,5
2022-11-15T04:14:41.366Z,5
2022-11-15T04:18:41.382Z,6
2022-11-15T04:19:41.379Z,4
2022-11-15T04:20:41.370Z,4
2022-11-15T04:22:41.377Z,5
2022-11-15T04:24:41.366Z,5
2022-11-15T04:25:41.367Z,4
2022-11-15T04:27:41.368Z,5
2022-11-15T04:28:41.375Z,4
2022-11-15T04:29:41.378Z,5
2022-11-15T04:30:41.396Z,5
2022-11-15T04:31:41.389Z,5
2022-11-15T04:32:41.388Z,5
2022-11-15T04:33:41.397Z,4
2022-11-15T04:34:41.441Z,5
2022-11-15T04:35:41.389Z,5
2022-11-15T04:36:41.368Z,4
2022-11-15T04:37:46.444Z,4
2022-11-15T04:38:41.370Z,5
2022-11-15T04:39:41.383Z,4
2022-11-15T04:40:41.386Z,4
2022-11-15T04:41:41.376Z,4
2022-11-15T04:42:41.379Z,4
2022-11-15T04:43:41.379Z,5
2022-11-15T04:44:41.377Z,4
2022-11-15T04:45:41.375Z,4
2022-11-15T04:46:41.367Z,4
2022-11-15T04:48:41.401Z,4
2022-11-15T04:50:41.387Z,4
2022-11-15T04:51:41.371Z,4
2022-11-15T04:52:41.377Z,4
2022-11-15T04:54:41.391Z,4
2022-11-15T04:56:41.390Z,4
2022-11-15T05:00:41.445Z,5
2022-11-15T05:01:44.843Z,4
2022-11-15T05:02:41.389Z,4
2022-11-15T05:03:41.400Z,4
2022-11-15T05:04:41.400Z,4
2022-11-15T05:05:41.412Z,4
2022-11-15T05:06:41.403Z,4
2022-11-15T05:08:41.398Z,4
2022-11-15T05:10:41.396Z,4
2022-11-15T05:12:41.386Z,4
2022-11-15T05:14:41.400Z,4
2022-11-15T05:16:41.395Z,4
2022-11-15T05:17:41.406Z,4
2022-11-15T05:18:41.409Z,4
2022-11-15T05:19:41.420Z,4
2022-11-15T05:20:41.430Z,4
2022-11-15T05:21:41.398Z,4
2022-11-15T05:22:41.404Z,4
2022-11-15T05:23:41.400Z,4
2022-11-15T05:24:41.418Z,4
2022-11-15T05:25:41.384Z,4
2022-11-15T05:26:41.380Z,3
2022-11-15T05:28:41.423Z,3
2022-11-15T05:29:41.406Z,3
2022-11-15T05:30:41.396Z,3
2022-11-15T05:31:41.387Z,4
2022-11-15T05:33:41.422Z,4
2022-11-15T05:34:41.413Z,3
2022-11-15T05:35:41.409Z,4
2022-11-15T05:36:41.436Z,4
2022-11-15T05:38:41.400Z,4
2022-11-15T05:39:41.415Z,4
2022-11-15T05:40:41.422Z,4
2022-11-15T05:41:41.386Z,4
2022-11-15T05:43:41.411Z,4
2022-11-15T05:44:41.407Z,4
2022-11-15T05:45:41.392Z,5
2022-11-15T05:46:41.417Z,4
2022-11-15T05:47:41.422Z,5
2022-11-15T05:48:41.423Z,5
2022-11-15T05:49:41.409Z,5
2022-11-15T05:50:41.395Z,5
2022-11-15T05:51:41.393Z,6
2022-11-15T05:52:41.397Z,5
2022-11-15T05:53:41.398Z,5
2022-11-15T05:54:41.408Z,6
2022-11-15T05:55:41.395Z,5
2022-11-15T05:56:41.408Z,5
2022-11-15T05:58:41.398Z,5
2022-11-15T06:00:41.409Z,5
2022-11-15T06:01:41.466Z,6
2022-11-15T06:02:41.422Z,5
2022-11-15T06:03:41.414Z,5
2022-11-15T06:05:41.399Z,6
2022-11-15T06:06:41.412Z,6
2022-11-15T06:07:41.460Z,6
2022-11-15T06:08:41.401Z,5
2022-11-15T06:10:41.397Z,5
2022-11-15T06:13:41.408Z,5
2022-11-15T06:14:41.424Z,5
2022-11-15T06:15:41.403Z,4
2022-11-15T06:17:41.438Z,5
2022-11-15T06:18:41.417Z,5
2022-11-15T06:19:41.422Z,5
2022-11-15T06:20:41.434Z,5
2022-11-15T06:21:41.427Z,5
2022-11-15T06:22:41.427Z,5
2022-11-15T06:23:41.417Z,5
2022-11-15T06:24:41.445Z,5
2022-11-15T06:25:41.421Z,5
2022-11-15T06:26:41.414Z,5
2022-11-15T06:27:41.405Z,4
2022-11-15T06:28:41.410Z,5
2022-11-15T06:29:41.404Z,4
2022-11-15T06:30:41.412Z,5
2022-11-15T06:31:41.401Z,4
2022-11-15T06:32:41.414Z,4
2022-11-15T06:33:41.426Z,5
2022-11-15T06:34:41.448Z,5
2022-11-15T06:35:41.422Z,5
2022-11-15T06:37:41.425Z,5
2022-11-15T06:38:41.583Z,4
2022-11-15T06:39:41.406Z,5
2022-11-15T06:40:41.414Z,4
2022-11-15T06:41:41.411Z,5
2022-11-15T06:42:41.425Z,5
2022-11-15T06:43:41.410Z,5
2022-11-15T06:44:41.414Z,5
2022-11-15T06:45:41.418Z,4
2022-11-15T06:46:41.451Z,4
2022-11-15T06:47:41.428Z,5
2022-11-15T06:48:41.415Z,5
2022-11-15T06:49:41.425Z,4
2022-11-15T06:50:41.416Z,4
2022-11-15T06:54:41.420Z,3
2022-11-15T06:55:41.433Z,3
2022-11-15T06:57:41.421Z,4
2022-11-15T06:59:41.417Z,4
2022-11-15T07:04:41.443Z,3
2022-11-15T07:05:41.438Z,3
2022-11-15T07:06:41.417Z,3
2022-11-15T07:07:41.424Z,3
2022-11-15T07:09:41.445Z,3
2022-11-15T07:10:41.420Z,3
2022-11-15T07:11:41.420Z,3
2022-11-15T07:13:41.454Z,3
2022-11-15T07:15:41.423Z,3
2022-11-15T07:18:41.461Z,3
2022-11-15T07:19:41.431Z,3
2022-11-15T07:20:41.423Z,3
2022-11-15T07:21:41.433Z,3
2022-11-15T07:22:41.428Z,3
2022-11-15T07:23:41.435Z,3
2022-11-15T07:24:41.449Z,3
2022-11-15T07:25:41.894Z,3
2022-11-15T07:26:41.452Z,3
2022-11-15T07:27:41.445Z,3
2022-11-15T07:28:41.455Z,3
2022-11-15T07:29:41.433Z,3
2022-11-15T07:30:45.226Z,3
2022-11-15T07:31:41.454Z,3
2022-11-15T07:33:41.456Z,3
2022-11-15T07:34:41.455Z,3
2022-11-15T07:35:41.458Z,3
2022-11-15T07:36:41.439Z,3
2022-11-15T07:39:41.437Z,3
2022-11-15T07:40:41.456Z,3
2022-11-15T07:41:41.426Z,3
2022-11-15T07:43:41.451Z,3
2022-11-15T07:44:41.440Z,3
2022-11-15T07:45:41.431Z,3
2022-11-15T07:46:41.451Z,3
2022-11-15T07:47:41.459Z,2
2022-11-15T07:48:45.535Z,3
2022-11-15T07:50:41.460Z,3
2022-11-15T07:52:41.457Z,2
2022-11-15T07:53:41.439Z,3
2022-11-15T07:55:41.438Z,3
2022-11-15T07:56:41.437Z,3
2022-11-15T07:57:41.462Z,2
2022-11-15T07:59:41.439Z,2
2022-11-15T08:00:41.472Z,3
2022-11-15T08:01:41.608Z,2
2022-11-15T08:02:41.711Z,2
2022-11-15T08:04:41.441Z,2
2022-11-15T08:06:41.462Z,2
2022-11-15T08:07:41.458Z,2
2022-11-15T08:08:41.457Z,2
2022-11-15T08:09:41.455Z,2
2022-11-15T08:14:41.478Z,2
2022-11-15T08:17:41.449Z,2
2022-11-15T08:21:41.467Z,2
2022-11-15T08:22:41.468Z,2
2022-11-15T08:23:41.463Z,2
2022-11-15T08:24:41.476Z,2
2022-11-15T08:27:41.515Z,2
2022-11-15T08:28:41.474Z,2
2022-11-15T08:29:41.455Z,1
2022-11-15T08:31:41.461Z,1
2022-11-15T08:32:41.452Z,1
2022-11-15T08:34:41.468Z,1
2022-11-15T08:36:45.890Z,1
2022-11-15T08:37:41.493Z,1
2022-11-15T08:41:41.461Z,1
2022-11-15T08:44:41.460Z,1
2022-11-15T08:45:41.455Z,2
2022-11-15T08:46:41.460Z,1
2022-11-15T08:47:41.492Z,1
2022-11-15T08:49:41.476Z,1
2022-11-15T08:50:41.479Z,1
2022-11-15T08:51:41.477Z,1
2022-11-15T08:52:41.484Z,1
2022-11-15T09:01:41.550Z,1
2022-11-15T09:02:41.465Z,1
2022-11-15T09:04:41.484Z,1
2022-11-15T09:05:41.464Z,1
2022-11-15T09:09:41.485Z,2
2022-11-15T09:12:41.543Z,2
2022-11-15T09:13:41.900Z,2
2022-11-15T09:15:41.476Z,1
2022-11-15T09:16:41.487Z,2
2022-11-15T09:17:41.506Z,2
2022-11-15T09:20:41.481Z,2
2022-11-15T09:21:41.489Z,2
2022-11-15T09:24:41.474Z,2
2022-11-15T09:25:41.469Z,2
2022-11-15T09:26:41.495Z,2
2022-11-15T09:27:41.494Z,2
2022-11-15T09:28:41.475Z,2
2022-11-15T09:29:41.508Z,2
2022-11-15T09:38:41.501Z,2
2022-11-15T09:39:41.518Z,3
2022-11-15T09:40:41.499Z,3
2022-11-15T09:41:41.497Z,2
2022-11-15T09:43:41.482Z,2
2022-11-15T09:46:41.491Z,2
2022-11-15T09:49:41.502Z,2
2022-11-15T09:52:41.516Z,2
2022-11-15T09:54:56.798Z,2
2022-11-15T10:05:41.507Z,2
2022-11-15T10:08:41.509Z,2
2022-11-15T10:09:41.534Z,2
2022-11-15T10:12:41.500Z,1
2022-11-15T10:13:41.503Z,2
2022-11-15T10:14:41.506Z,2
2022-11-15T10:15:41.510Z,1
2022-11-15T10:18:41.507Z,2
2022-11-15T10:20:41.499Z,1
2022-11-15T10:30:41.525Z,2
2022-11-15T10:31:41.510Z,1
2022-11-15T10:32:41.531Z,1
2022-11-15T10:33:41.512Z,1
2022-11-15T10:36:45.176Z,2
2022-11-15T10:37:41.520Z,2
2022-11-15T10:40:41.496Z,1
2022-11-15T10:41:41.502Z,1
2022-11-15T10:42:41.501Z,2
2022-11-15T10:43:41.496Z,2
2022-11-15T10:52:41.520Z,1
2022-11-15T10:54:41.506Z,1
2022-11-15T10:55:41.506Z,1
2022-11-15T10:57:41.510Z,2
2022-11-15T11:01:41.591Z,1
2022-11-15T11:04:41.514Z,2
2022-11-15T11:05:42.909Z,1
2022-11-15T11:07:41.508Z,1
2022-11-15T11:14:41.511Z,1
2022-11-15T11:17:41.540Z,1
2022-11-15T11:18:41.513Z,1
2022-11-15T11:19:41.519Z,1
2022-11-15T11:20:41.536Z,1
2022-11-15T11:35:41.518Z,1
2022-11-15T11:36:41.517Z,1
2022-11-15T11:39:41.532Z,1
2022-11-15T11:52:41.544Z,1
2022-11-15T11:53:41.545Z,1
2022-11-15T11:56:41.518Z,1
2022-11-15T11:57:41.555Z,1
2022-11-15T11:58:41.533Z,1
2022-11-15T11:59:41.534Z,1
2022-11-15T12:07:41.551Z,1
2022-11-15T12:08:41.536Z,1
2022-11-15T12:10:41.550Z,1
2022-11-15T12:11:41.542Z,1
2022-11-15T12:12:41.554Z,1
2022-11-15T12:20:41.543Z,1
2022-11-15T12:22:41.558Z,1
2022-11-15T12:23:41.542Z,1
2022-11-15T12:24:41.531Z,1
2022-11-15T12:25:41.540Z,1
2022-11-15T12:26:41.539Z,1
2022-11-15T12:34:41.574Z,1
2022-11-15T12:36:41.576Z,1
2022-11-15T12:37:41.586Z,1
2022-11-15T12:39:41.557Z,1
2022-11-15T12:41:41.580Z,1
2022-11-15T12:43:41.551Z,1
2022-11-15T12:45:41.559Z,1
2022-11-15T12:47:41.537Z,1
2022-11-15T12:55:41.543Z,1
2022-11-15T12:56:41.560Z,1
2022-11-15T12:57:41.544Z,1
2022-11-15T12:58:41.552Z,1
2022-11-15T13:06:41.565Z,1
2022-11-15T13:07:41.643Z,1
2022-11-15T13:08:41.548Z,1
2022-11-15T13:09:41.559Z,1
2022-11-15T13:10:41.575Z,1
2022-11-15T13:19:41.550Z,1
2022-11-15T13:20:41.561Z,2
2022-11-15T13:21:41.586Z,1
2022-11-15T13:23:41.707Z,1
2022-11-15T13:31:41.562Z,1
2022-11-15T13:32:41.578Z,1
2022-11-15T13:33:41.601Z,1
2022-11-15T13:45:41.569Z,1
2022-11-15T13:46:41.581Z,1
2022-11-15T13:47:41.580Z,1
2022-11-15T13:48:41.566Z,1
2022-11-15T14:02:41.584Z,1
2022-11-15T14:03:41.590Z,1
2022-11-15T14:04:41.583Z,1
2022-11-15T14:05:41.586Z,1
2022-11-15T14:06:41.564Z,2
2022-11-15T14:07:44.481Z,2
2022-11-15T14:09:41.573Z,1
2022-11-15T14:13:41.576Z,1
2022-11-15T14:17:45.671Z,1
2022-11-15T14:18:41.606Z,2
2022-11-15T14:19:41.574Z,1
2022-11-15T14:30:41.605Z,1
2022-11-15T14:32:41.629Z,1
2022-11-15T14:40:41.586Z,1
2022-11-15T14:41:41.576Z,1
2022-11-15T14:42:41.582Z,1
2022-11-15T14:43:41.598Z,2
2022-11-15T14:52:41.611Z,1
2022-11-15T14:53:41.594Z,1
2022-11-15T14:54:41.611Z,1
2022-11-15T14:56:41.590Z,1
2022-11-15T15:04:41.585Z,1
2022-11-15T15:05:41.599Z,1
2022-11-15T15:07:41.701Z,1
2022-11-15T15:09:41.590Z,2
2022-11-15T15:18:41.624Z,2
2022-11-15T15:19:41.606Z,2
2022-11-15T15:20:41.602Z,2
2022-11-15T15:21:41.605Z,2
2022-11-15T15:30:41.620Z,2
2022-11-15T15:31:41.618Z,2
2022-11-15T15:32:41.618Z,2
2022-11-15T15:33:41.616Z,2
2022-11-15T15:37:41.595Z,1
2022-11-15T15:40:41.626Z,2
2022-11-15T15:43:41.637Z,2
2022-11-15T15:44:41.622Z,2
2022-11-15T15:46:41.598Z,2
2022-11-15T15:47:41.614Z,2
2022-11-15T15:48:41.961Z,2
2022-11-15T15:49:41.603Z,2
2022-11-15T15:50:41.631Z,2
2022-11-15T15:53:41.621Z,2
2022-11-15T15:54:41.624Z,2
2022-11-15T15:58:41.611Z,2
2022-11-15T15:59:41.605Z,2
2022-11-15T16:00:41.602Z,3
2022-11-15T16:03:41.621Z,2
2022-11-15T16:04:41.621Z,2
2022-11-15T16:06:41.626Z,2
2022-11-15T16:07:41.627Z,2
2022-11-15T16:09:00.518Z,2
2022-11-15T16:13:41.625Z,2
2022-11-15T16:15:41.605Z,2
2022-11-15T16:17:41.622Z,2
2022-11-15T16:18:41.613Z,2
2022-11-15T16:19:41.615Z,2
2022-11-15T16:20:41.615Z,2
2022-11-15T16:21:41.657Z,2
2022-11-15T16:22:41.611Z,2
2022-11-15T16:23:41.618Z,2
2022-11-15T16:24:41.635Z,2
2022-11-15T16:25:41.638Z,2
2022-11-15T16:26:41.625Z,2
2022-11-15T16:27:41.650Z,2
2022-11-15T16:28:41.623Z,2
2022-11-15T16:29:41.617Z,2
2022-11-15T16:31:41.635Z,2
2022-11-15T16:32:41.720Z,2
2022-11-15T16:35:41.622Z,3
2022-11-15T16:36:41.645Z,3
2022-11-15T16:40:41.626Z,2
2022-11-15T16:42:41.622Z,2
2022-11-15T16:44:41.631Z,2
2022-11-15T16:46:41.627Z,2
2022-11-15T16:47:41.639Z,2
2022-11-15T16:51:41.632Z,2
2022-11-15T16:53:41.635Z,2
2022-11-15T16:54:41.624Z,2
2022-11-15T16:56:41.673Z,3
2022-11-15T16:57:41.631Z,3
2022-11-15T16:58:41.676Z,2
2022-11-15T16:59:41.648Z,2
2022-11-15T17:00:41.731Z,2
2022-11-15T17:02:41.637Z,4
2022-11-15T17:03:41.655Z,4
2022-11-15T17:04:41.648Z,4
2022-11-15T17:05:41.674Z,4
2022-11-15T17:06:41.654Z,4
2022-11-15T17:07:41.652Z,3
2022-11-15T17:08:41.655Z,3
2022-11-15T17:09:41.655Z,3
2022-11-15T17:10:41.648Z,3
2022-11-15T17:14:41.637Z,3
2022-11-15T17:16:41.631Z,2
2022-11-15T17:17:41.682Z,3
2022-11-15T17:18:41.636Z,2
2022-11-15T17:19:41.637Z,2
2022-11-15T17:20:41.651Z,2
2022-11-15T17:21:41.645Z,2
2022-11-15T17:22:41.635Z,2
2022-11-15T17:23:41.649Z,2
2022-11-15T17:24:41.636Z,2
2022-11-15T17:25:41.645Z,2
2022-11-15T17:26:41.659Z,2
2022-11-15T17:27:41.663Z,2
2022-11-15T17:28:41.655Z,2
2022-11-15T17:30:41.791Z,2
2022-11-15T17:32:41.645Z,2
2022-11-15T17:33:41.723Z,3
2022-11-15T17:35:41.659Z,2
2022-11-15T17:36:41.651Z,2
2022-11-15T17:37:41.671Z,2
2022-11-15T17:38:41.759Z,2
2022-11-15T17:39:41.659Z,2
2022-11-15T17:41:41.648Z,2
2022-11-15T17:43:41.667Z,2
2022-11-15T17:45:41.669Z,2
2022-11-15T17:47:41.658Z,2
2022-11-15T17:49:43.088Z,3
2022-11-15T17:50:41.645Z,2
2022-11-15T17:51:45.091Z,3
2022-11-15T17:52:41.649Z,3
2022-11-15T17:53:41.651Z,2
2022-11-15T17:54:41.655Z,2
2022-11-15T17:55:41.645Z,2
2022-11-15T17:56:41.644Z,3
2022-11-15T17:57:41.653Z,3
2022-11-15T17:58:41.652Z,2
2022-11-15T17:59:41.689Z,5
2022-11-15T18:00:41.723Z,3
2022-11-15T18:01:41.671Z,3
2022-11-15T18:02:41.684Z,3
2022-11-15T18:04:41.655Z,4
2022-11-15T18:05:41.651Z,3
2022-11-15T18:07:41.673Z,3
2022-11-15T18:09:41.649Z,2
2022-11-15T18:10:41.663Z,2
2022-11-15T18:12:41.649Z,2
2022-11-15T18:13:41.652Z,2
2022-11-15T18:14:41.648Z,2
2022-11-15T18:18:41.663Z,4
2022-11-15T18:19:41.676Z,3
2022-11-15T18:20:41.687Z,2
2022-11-15T18:21:41.662Z,2
2022-11-15T18:22:41.652Z,2
2022-11-15T18:23:41.672Z,2
2022-11-15T18:24:41.673Z,2
2022-11-15T18:25:41.688Z,2
2022-11-15T18:26:41.671Z,2
2022-11-15T18:27:41.652Z,2
2022-11-15T18:28:41.662Z,2
2022-11-15T18:29:41.675Z,2
2022-11-15T18:30:41.689Z,2
2022-11-15T18:32:41.658Z,2
2022-11-15T18:35:41.743Z,2
2022-11-15T18:36:41.664Z,2
2022-11-15T18:37:41.695Z,2
2022-11-15T18:39:41.683Z,2
2022-11-15T18:40:41.683Z,2
2022-11-15T18:42:41.683Z,2
2022-11-15T18:44:41.691Z,2
2022-11-15T18:46:41.664Z,2
2022-11-15T18:47:41.686Z,2
2022-11-15T18:52:41.685Z,3
2022-11-15T18:54:41.661Z,2
2022-11-15T18:56:41.669Z,3
2022-11-15T18:58:41.692Z,3
2022-11-15T19:00:41.775Z,3
2022-11-15T19:02:41.696Z,3
2022-11-15T19:04:41.702Z,3
2022-11-15T19:06:41.680Z,3
2022-11-15T19:08:41.677Z,3
2022-11-15T19:09:41.690Z,2
2022-11-15T19:12:41.694Z,2
2022-11-15T19:14:41.679Z,3
2022-11-15T19:16:41.696Z,3
2022-11-15T19:18:41.667Z,3
2022-11-15T19:20:41.693Z,3
2022-11-15T19:21:41.694Z,3
2022-11-15T19:22:41.703Z,2
2022-11-15T19:23:41.677Z,2
2022-11-15T19:24:41.695Z,2
2022-11-15T19:25:41.767Z,3
2022-11-15T19:26:41.707Z,3
2022-11-15T19:27:41.682Z,3
2022-11-15T19:28:41.679Z,2
2022-11-15T19:30:41.699Z,2
2022-11-15T19:31:41.715Z,3
2022-11-15T19:32:41.677Z,2
2022-11-15T19:33:41.707Z,2
2022-11-15T19:35:41.705Z,3
2022-11-15T19:36:42.079Z,3
2022-11-15T19:37:41.701Z,3
2022-11-15T19:38:41.694Z,2
2022-11-15T19:39:41.697Z,2
2022-11-15T19:40:41.752Z,3
2022-11-15T19:41:41.705Z,3
2022-11-15T19:42:41.711Z,2
2022-11-15T19:43:41.692Z,2
2022-11-15T19:44:41.689Z,2
2022-11-15T19:45:41.695Z,2
2022-11-15T19:46:41.702Z,3
2022-11-15T19:47:41.713Z,2
2022-11-15T19:48:41.709Z,2
2022-11-15T19:49:41.709Z,2
2022-11-15T19:51:41.800Z,3
2022-11-15T19:52:41.694Z,3
2022-11-15T19:53:42.343Z,2
2022-11-15T19:54:41.695Z,3
2022-11-15T19:55:41.715Z,3
2022-11-15T19:56:41.716Z,3
2022-11-15T19:57:41.712Z,3
2022-11-15T19:58:41.713Z,2
2022-11-15T19:59:41.710Z,3
2022-11-15T20:00:41.752Z,2
2022-11-15T20:01:41.697Z,3
2022-11-15T20:03:41.711Z,3
2022-11-15T20:05:41.705Z,2
2022-11-15T20:07:41.781Z,3
2022-11-15T20:09:41.733Z,3
2022-11-15T20:12:41.699Z,3
2022-11-15T20:13:41.696Z,3
2022-11-15T20:14:41.690Z,2
2022-11-15T20:15:41.707Z,2
2022-11-15T20:19:41.720Z,3
2022-11-15T20:22:41.723Z,3
2022-11-15T20:23:41.697Z,3
2022-11-15T20:24:41.698Z,3
2022-11-15T20:25:41.716Z,2
2022-11-15T20:26:41.716Z,3
2022-11-15T20:27:41.707Z,3
2022-11-15T20:28:41.722Z,3
2022-11-15T20:29:44.820Z,3
2022-11-15T20:30:41.715Z,4
2022-11-15T20:31:41.713Z,3
2022-11-15T20:32:41.724Z,3
2022-11-15T20:33:41.717Z,3
2022-11-15T20:34:41.725Z,3
2022-11-15T20:35:41.808Z,2
2022-11-15T20:36:41.730Z,3
2022-11-15T20:37:41.722Z,2
2022-11-15T20:38:41.719Z,3
2022-11-15T20:39:41.720Z,3
2022-11-15T20:40:41.727Z,3
2022-11-15T20:41:41.730Z,3
2022-11-15T20:43:41.724Z,3
2022-11-15T20:45:41.758Z,3
2022-11-15T20:47:42.108Z,3
2022-11-15T20:48:41.712Z,3
2022-11-15T20:49:41.712Z,3
2022-11-15T20:51:41.727Z,3
2022-11-15T20:52:41.728Z,3
2022-11-15T20:53:41.714Z,4
2022-11-15T20:57:41.726Z,3
2022-11-15T20:59:41.721Z,3
2022-11-15T21:01:41.894Z,4
2022-11-15T21:03:41.726Z,3
2022-11-15T21:06:46.077Z,3
2022-11-15T21:07:41.909Z,3
2022-11-15T21:09:41.720Z,3
2022-11-15T21:11:41.739Z,3
2022-11-15T21:13:41.755Z,3
2022-11-15T21:15:41.724Z,3
2022-11-15T21:17:41.742Z,3
2022-11-15T21:19:41.735Z,3
2022-11-15T21:20:41.720Z,2
2022-11-15T21:21:41.715Z,3
2022-11-15T21:23:41.735Z,3
2022-11-15T21:24:41.740Z,3
2022-11-15T21:25:41.732Z,3
2022-11-15T21:27:41.741Z,3
2022-11-15T21:31:41.746Z,3
2022-11-15T21:35:41.745Z,3
2022-11-15T21:36:41.715Z,3
2022-11-15T21:37:41.751Z,3
2022-11-15T21:38:41.721Z,3
2022-11-15T21:39:41.738Z,3
2022-11-15T21:40:41.725Z,3
2022-11-15T21:41:41.730Z,3
2022-11-15T21:42:41.798Z,3
2022-11-15T21:43:41.727Z,3
2022-11-15T21:44:41.729Z,3
2022-11-15T21:45:41.725Z,3
2022-11-15T21:46:41.730Z,4
2022-11-15T21:47:45.813Z,3
2022-11-15T21:48:41.739Z,3
2022-11-15T21:49:41.727Z,3
2022-11-15T21:50:41.744Z,3
2022-11-15T21:51:41.743Z,3
2022-11-15T21:53:41.721Z,3
2022-11-15T21:55:41.728Z,3
2022-11-15T21:57:41.727Z,3
2022-11-15T21:58:41.737Z,3
2022-11-15T21:59:41.746Z,3
2022-11-15T22:01:41.852Z,3
2022-11-15T22:02:41.743Z,3
2022-11-15T22:03:41.752Z,3
2022-11-15T22:04:41.742Z,3
2022-11-15T22:07:41.733Z,4
2022-11-15T22:09:41.736Z,3
2022-11-15T22:12:41.755Z,3
2022-11-15T22:13:41.764Z,3
2022-11-15T22:14:41.740Z,3
2022-11-15T22:15:41.744Z,3
2022-11-15T22:17:41.728Z,3
2022-11-15T22:19:52.203Z,3
2022-11-15T22:20:45.420Z,3
2022-11-15T22:21:41.742Z,3
2022-11-15T22:22:41.762Z,3
2022-11-15T22:24:41.773Z,3
2022-11-15T22:26:41.775Z,3
2022-11-15T22:27:41.755Z,3
2022-11-15T22:28:41.754Z,3
2022-11-15T22:29:41.827Z,3
2022-11-15T22:30:41.737Z,3
2022-11-15T22:32:41.735Z,3
2022-11-15T22:33:41.729Z,3
2022-11-15T22:34:41.759Z,3
2022-11-15T22:35:41.751Z,3
2022-11-15T22:37:41.851Z,3
2022-11-15T22:38:41.759Z,3
2022-11-15T22:39:41.775Z,3
2022-11-15T22:40:41.743Z,3
2022-11-15T22:41:41.759Z,3
2022-11-15T22:42:41.749Z,3
2022-11-15T22:46:41.763Z,3
2022-11-15T22:48:41.761Z,2
2022-11-15T22:53:41.760Z,3
2022-11-15T22:54:41.767Z,3
2022-11-15T22:56:41.745Z,3
2022-11-15T22:57:41.749Z,3
2022-11-15T22:58:41.770Z,3
2022-11-15T22:59:41.743Z,3
2022-11-15T23:00:41.762Z,3
2022-11-15T23:01:41.761Z,2
2022-11-15T23:02:41.758Z,2
2022-11-15T23:03:41.813Z,3
2022-11-15T23:04:41.773Z,3
2022-11-15T23:05:41.754Z,2
2022-11-15T23:06:41.759Z,2
2022-11-15T23:07:41.755Z,3
2022-11-15T23:08:42.263Z,3
2022-11-15T23:09:41.770Z,3
2022-11-15T23:10:41.800Z,3
2022-11-15T23:11:41.757Z,2
2022-11-15T23:12:41.747Z,2
2022-11-15T23:13:41.762Z,3
2022-11-15T23:14:41.760Z,3
2022-11-15T23:15:41.766Z,3
2022-11-15T23:16:41.754Z,3
2022-11-15T23:17:41.770Z,3
2022-11-15T23:18:41.767Z,3
2022-11-15T23:19:41.761Z,3
2022-11-15T23:20:43.863Z,3
2022-11-15T23:21:41.770Z,15